FFT3364 KTPA-KMCO
Flight info
| Callsign | FFT3364 |
|---|---|
| Flight time | 0h 26m |
| Altitude | 9000 |
| Route | LAL MINEE MINEE6 |
| Aircraft | A21N/M-SDE2E3FGHIRWXY/LB1 |
Departure
| Time | 2026-04-23 00:58 |
|---|---|
| Airport | Tampa International Airport (KTPA) |
Arrival
| Time | 2026-04-23 01:25 |
|---|---|
| Airport | Orlando International Airport (KMCO) |
| Time | Latitude | Longitude | Altitude | Speed | Heading |
|---|---|---|---|---|---|
| 2026-04-23 00:14 | 27.97894 | -82.53797 | 58 ft | 0 kts | 353° |
| 2026-04-23 00:44 | 27.97879 | -82.53795 | 47 ft | 4 kts | 353° |
| 2026-04-23 00:44 | 27.97860 | -82.53792 | 48 ft | 1 kts | 353° |
| 2026-04-23 00:45 | 27.97857 | -82.53792 | 45 ft | 0 kts | 353° |
| 2026-04-23 00:50 | 27.97865 | -82.53813 | 49 ft | 6 kts | 259° |
| 2026-04-23 00:50 | 27.97845 | -82.53840 | 48 ft | 6 kts | 221° |
| 2026-04-23 00:51 | 27.97826 | -82.53875 | 49 ft | 0 kts | 261° |
| 2026-04-23 00:52 | 27.97825 | -82.53878 | 49 ft | 2 kts | 260° |
| 2026-04-23 00:52 | 27.97821 | -82.53901 | 49 ft | 5 kts | 256° |
| 2026-04-23 00:52 | 27.97822 | -82.53950 | 50 ft | 8 kts | 292° |
| 2026-04-23 00:52 | 27.97851 | -82.54024 | 52 ft | 12 kts | 297° |
| 2026-04-23 00:53 | 27.97934 | -82.54056 | 52 ft | 15 kts | 1° |
| 2026-04-23 00:53 | 27.98046 | -82.54053 | 52 ft | 17 kts | 1° |
| 2026-04-23 00:53 | 27.98174 | -82.54048 | 53 ft | 20 kts | 2° |
| 2026-04-23 00:53 | 27.98319 | -82.54044 | 53 ft | 22 kts | 1° |
| 2026-04-23 00:54 | 27.98478 | -82.54038 | 54 ft | 23 kts | 2° |
| 2026-04-23 00:54 | 27.98635 | -82.54033 | 54 ft | 23 kts | 0° |
| 2026-04-23 00:54 | 27.98792 | -82.54026 | 53 ft | 23 kts | 2° |
| 2026-04-23 00:54 | 27.98956 | -82.54021 | 53 ft | 25 kts | 1° |
| 2026-04-23 00:55 | 27.99124 | -82.54017 | 52 ft | 24 kts | 1° |
| 2026-04-23 00:55 | 27.99252 | -82.54012 | 51 ft | 10 kts | 2° |
| 2026-04-23 00:55 | 27.99304 | -82.54011 | 51 ft | 12 kts | 351° |
| 2026-04-23 00:55 | 27.99327 | -82.54020 | 52 ft | 0 kts | 324° |
| 2026-04-23 00:56 | 27.99328 | -82.54021 | 52 ft | 1 kts | 323° |
| 2026-04-23 00:56 | 27.99336 | -82.54030 | 52 ft | 4 kts | 307° |
| 2026-04-23 00:56 | 27.99348 | -82.54072 | 51 ft | 7 kts | 275° |
| 2026-04-23 00:57 | 27.99322 | -82.54133 | 51 ft | 11 kts | 200° |
| 2026-04-23 00:57 | 27.99224 | -82.54137 | 53 ft | 35 kts | 181° |
| 2026-04-23 00:57 | 27.98708 | -82.54156 | 56 ft | 111 kts | 181° |
| 2026-04-23 00:57 | 27.97744 | -82.54185 | 53 ft | 167 kts | 178° |
| 2026-04-23 00:58 | 27.96559 | -82.54253 | 574 ft | 172 kts | 180° |
| 2026-04-23 00:58 | 27.95348 | -82.54283 | 1216 ft | 177 kts | 175° |
| 2026-04-23 00:58 | 27.94070 | -82.54233 | 1761 ft | 191 kts | 172° |
| 2026-04-23 00:58 | 27.92658 | -82.54101 | 2183 ft | 217 kts | 169° |
| 2026-04-23 00:59 | 27.91055 | -82.53923 | 2632 ft | 245 kts | 173° |
| 2026-04-23 00:59 | 27.89266 | -82.53822 | 3208 ft | 269 kts | 175° |
| 2026-04-23 00:59 | 27.87370 | -82.53595 | 4062 ft | 272 kts | 159° |
| 2026-04-23 00:59 | 27.85779 | -82.52519 | 5243 ft | 265 kts | 136° |
| 2026-04-23 01:00 | 27.84715 | -82.50836 | 6324 ft | 265 kts | 115° |
| 2026-04-23 01:00 | 27.84305 | -82.48818 | 7187 ft | 273 kts | 93° |
| 2026-04-23 01:00 | 27.84623 | -82.46670 | 7971 ft | 284 kts | 73° |
| 2026-04-23 01:00 | 27.85318 | -82.44535 | 8615 ft | 293 kts | 69° |
| 2026-04-23 01:01 | 27.86048 | -82.42364 | 8919 ft | 296 kts | 69° |
| 2026-04-23 01:01 | 27.86760 | -82.40175 | 9003 ft | 297 kts | 69° |
| 2026-04-23 01:01 | 27.87456 | -82.37998 | 9019 ft | 294 kts | 70° |
| 2026-04-23 01:01 | 27.88141 | -82.35816 | 9018 ft | 294 kts | 70° |
| 2026-04-23 01:02 | 27.88816 | -82.33634 | 9014 ft | 293 kts | 70° |
| 2026-04-23 01:02 | 27.89484 | -82.31457 | 9020 ft | 294 kts | 70° |
| 2026-04-23 01:02 | 27.90154 | -82.29270 | 9038 ft | 294 kts | 70° |
| 2026-04-23 01:02 | 27.90820 | -82.27092 | 9046 ft | 294 kts | 70° |
| 2026-04-23 01:03 | 27.91486 | -82.24908 | 9059 ft | 295 kts | 70° |
| 2026-04-23 01:03 | 27.92151 | -82.22724 | 9046 ft | 293 kts | 71° |
| 2026-04-23 01:03 | 27.92815 | -82.20542 | 9050 ft | 293 kts | 70° |
| 2026-04-23 01:03 | 27.93480 | -82.18351 | 9045 ft | 294 kts | 70° |
| 2026-04-23 01:04 | 27.94134 | -82.16197 | 9045 ft | 293 kts | 71° |
| 2026-04-23 01:04 | 27.94805 | -82.13984 | 9040 ft | 294 kts | 71° |
| 2026-04-23 01:04 | 27.96123 | -82.09642 | 9048 ft | 293 kts | 71° |
| 2026-04-23 01:05 | 27.96786 | -82.07455 | 9038 ft | 294 kts | 71° |
| 2026-04-23 01:05 | 27.97447 | -82.05270 | 9032 ft | 293 kts | 71° |
| 2026-04-23 01:05 | 27.98108 | -82.03084 | 9035 ft | 294 kts | 71° |
| 2026-04-23 01:05 | 27.98846 | -82.00930 | 9036 ft | 293 kts | 63° |
| 2026-04-23 01:06 | 27.99809 | -81.98908 | 9038 ft | 293 kts | 60° |
| 2026-04-23 01:06 | 28.00813 | -81.96890 | 9034 ft | 294 kts | 60° |
| 2026-04-23 01:06 | 28.01816 | -81.94871 | 9035 ft | 293 kts | 60° |
| 2026-04-23 01:06 | 28.02812 | -81.92858 | 9046 ft | 294 kts | 60° |
| 2026-04-23 01:07 | 28.03806 | -81.90842 | 9045 ft | 293 kts | 60° |
| 2026-04-23 01:07 | 28.04798 | -81.88826 | 9065 ft | 293 kts | 60° |
| 2026-04-23 01:07 | 28.05777 | -81.86831 | 9069 ft | 293 kts | 60° |
| 2026-04-23 01:07 | 28.06765 | -81.84818 | 9042 ft | 293 kts | 60° |
| 2026-04-23 01:08 | 28.07755 | -81.82798 | 9023 ft | 294 kts | 60° |
| 2026-04-23 01:08 | 28.08744 | -81.80779 | 9002 ft | 293 kts | 60° |
| 2026-04-23 01:08 | 28.09731 | -81.78762 | 9003 ft | 293 kts | 60° |
| 2026-04-23 01:08 | 28.10718 | -81.76742 | 8999 ft | 292 kts | 60° |
| 2026-04-23 01:09 | 28.11701 | -81.74721 | 8989 ft | 293 kts | 60° |
| 2026-04-23 01:09 | 28.12679 | -81.72699 | 8977 ft | 291 kts | 61° |
| 2026-04-23 01:09 | 28.13654 | -81.70689 | 8980 ft | 291 kts | 60° |
| 2026-04-23 01:09 | 28.14631 | -81.68679 | 8974 ft | 291 kts | 60° |
| 2026-04-23 01:10 | 28.15608 | -81.66673 | 8972 ft | 291 kts | 60° |
| 2026-04-23 01:10 | 28.16588 | -81.64663 | 8977 ft | 291 kts | 61° |
| 2026-04-23 01:10 | 28.17627 | -81.62693 | 8969 ft | 290 kts | 52° |
| 2026-04-23 01:10 | 28.19138 | -81.61203 | 8958 ft | 288 kts | 30° |
| 2026-04-23 01:11 | 28.20906 | -81.60182 | 8571 ft | 284 kts | 24° |
| 2026-04-23 01:11 | 28.22708 | -81.59266 | 8125 ft | 283 kts | 23° |
| 2026-04-23 01:11 | 28.24510 | -81.58369 | 7708 ft | 281 kts | 23° |
| 2026-04-23 01:11 | 28.26273 | -81.57500 | 7319 ft | 279 kts | 23° |
| 2026-04-23 01:12 | 28.28043 | -81.56634 | 6933 ft | 276 kts | 23° |
| 2026-04-23 01:12 | 28.29800 | -81.55779 | 6554 ft | 274 kts | 23° |
| 2026-04-23 01:12 | 28.31543 | -81.54939 | 6150 ft | 271 kts | 23° |
| 2026-04-23 01:12 | 28.33279 | -81.54114 | 5734 ft | 269 kts | 23° |
| 2026-04-23 01:13 | 28.35009 | -81.53310 | 5341 ft | 267 kts | 23° |
| 2026-04-23 01:13 | 28.36730 | -81.52524 | 5032 ft | 266 kts | 23° |
| 2026-04-23 01:13 | 28.38449 | -81.51752 | 4970 ft | 265 kts | 23° |
| 2026-04-23 01:13 | 28.40171 | -81.50983 | 4968 ft | 266 kts | 23° |
| 2026-04-23 01:14 | 28.41900 | -81.50207 | 4978 ft | 267 kts | 23° |
| 2026-04-23 01:14 | 28.43634 | -81.49430 | 4985 ft | 268 kts | 23° |
| 2026-04-23 01:14 | 28.45362 | -81.48647 | 4995 ft | 268 kts | 23° |
| 2026-04-23 01:14 | 28.47094 | -81.47872 | 4981 ft | 268 kts | 23° |
| 2026-04-23 01:15 | 28.48825 | -81.47092 | 4983 ft | 268 kts | 23° |
| 2026-04-23 01:15 | 28.50561 | -81.46316 | 4982 ft | 268 kts | 23° |
| 2026-04-23 01:15 | 28.52294 | -81.45541 | 4982 ft | 267 kts | 23° |
| 2026-04-23 01:15 | 28.54023 | -81.44765 | 4981 ft | 267 kts | 23° |
| 2026-04-23 01:16 | 28.55758 | -81.43987 | 4963 ft | 266 kts | 23° |
| 2026-04-23 01:16 | 28.57464 | -81.43223 | 4594 ft | 263 kts | 23° |
| 2026-04-23 01:16 | 28.59173 | -81.42470 | 4152 ft | 263 kts | 23° |
| 2026-04-23 01:16 | 28.60862 | -81.41734 | 3751 ft | 263 kts | 23° |
| 2026-04-23 01:17 | 28.62573 | -81.40997 | 3341 ft | 262 kts | 23° |
| 2026-04-23 01:17 | 28.64285 | -81.40280 | 3028 ft | 262 kts | 23° |
| 2026-04-23 01:17 | 28.65962 | -81.39496 | 2960 ft | 259 kts | 31° |
| 2026-04-23 01:17 | 28.67316 | -81.38197 | 2950 ft | 253 kts | 57° |
| 2026-04-23 01:18 | 28.68008 | -81.36398 | 2968 ft | 243 kts | 78° |
| 2026-04-23 01:18 | 28.68304 | -81.34583 | 2964 ft | 224 kts | 83° |
| 2026-04-23 01:18 | 28.68517 | -81.32872 | 2959 ft | 215 kts | 91° |
| 2026-04-23 01:18 | 28.68156 | -81.31267 | 2959 ft | 212 kts | 126° |
| 2026-04-23 01:19 | 28.66979 | -81.30286 | 2972 ft | 217 kts | 162° |
| 2026-04-23 01:19 | 28.65460 | -81.30369 | 2979 ft | 226 kts | 197° |
| 2026-04-23 01:19 | 28.64102 | -81.31156 | 2971 ft | 211 kts | 207° |
| 2026-04-23 01:19 | 28.62850 | -81.31979 | 2966 ft | 204 kts | 201° |
| 2026-04-23 01:20 | 28.61633 | -81.32481 | 2991 ft | 169 kts | 188° |
| 2026-04-23 01:20 | 28.60530 | -81.32676 | 2971 ft | 156 kts | 180° |
| 2026-04-23 01:20 | 28.59450 | -81.32748 | 2887 ft | 154 kts | 176° |
| 2026-04-23 01:20 | 28.58384 | -81.32773 | 2743 ft | 153 kts | 175° |
| 2026-04-23 01:21 | 28.57319 | -81.32808 | 2565 ft | 153 kts | 176° |
| 2026-04-23 01:21 | 28.56273 | -81.32809 | 2362 ft | 152 kts | 174° |
| 2026-04-23 01:21 | 28.55278 | -81.32804 | 2159 ft | 135 kts | 174° |
| 2026-04-23 01:21 | 28.54344 | -81.32793 | 1978 ft | 134 kts | 174° |
| 2026-04-23 01:22 | 28.53414 | -81.32783 | 1790 ft | 133 kts | 173° |
| 2026-04-23 01:22 | 28.52493 | -81.32773 | 1618 ft | 132 kts | 173° |
| 2026-04-23 01:22 | 28.51569 | -81.32763 | 1434 ft | 133 kts | 174° |
| 2026-04-23 01:22 | 28.50640 | -81.32753 | 1257 ft | 133 kts | 174° |
| 2026-04-23 01:23 | 28.49718 | -81.32744 | 1082 ft | 131 kts | 174° |
| 2026-04-23 01:23 | 28.48801 | -81.32731 | 879 ft | 133 kts | 174° |
| 2026-04-23 01:23 | 28.47872 | -81.32744 | 703 ft | 135 kts | 176° |
| 2026-04-23 01:23 | 28.46932 | -81.32728 | 534 ft | 133 kts | 175° |
| 2026-04-23 01:24 | 28.46005 | -81.32718 | 351 ft | 133 kts | 175° |
| 2026-04-23 01:24 | 28.45088 | -81.32707 | 205 ft | 133 kts | 176° |
| 2026-04-23 01:24 | 28.44176 | -81.32690 | 109 ft | 125 kts | 175° |
| 2026-04-23 01:24 | 28.43439 | -81.32682 | 106 ft | 77 kts | 179° |
| 2026-04-23 01:25 | 28.43123 | -81.32647 | 105 ft | 31 kts | 143° |
| 2026-04-23 01:25 | 28.43057 | -81.32489 | 104 ft | 22 kts | 90° |
| 2026-04-23 01:25 | 28.43058 | -81.32395 | 104 ft | 7 kts | 88° |
| 2026-04-23 01:25 | 28.43059 | -81.32342 | 103 ft | 0 kts | 92° |
| 2026-04-23 01:26 | 28.43058 | -81.32304 | 103 ft | 13 kts | 92° |
| 2026-04-23 01:27 | 28.43059 | -81.32186 | 102 ft | 17 kts | 90° |
| 2026-04-23 01:27 | 28.43094 | -81.32046 | 103 ft | 21 kts | 56° |
| 2026-04-23 01:27 | 28.43169 | -81.31923 | 102 ft | 20 kts | 58° |
| 2026-04-23 01:27 | 28.43250 | -81.31784 | 103 ft | 22 kts | 56° |
| 2026-04-23 01:28 | 28.43375 | -81.31696 | 102 ft | 24 kts | 11° |
| 2026-04-23 01:28 | 28.43521 | -81.31661 | 102 ft | 13 kts | 13° |
| 2026-04-23 01:28 | 28.43572 | -81.31650 | 102 ft | 9 kts | 10° |
| 2026-04-23 01:28 | 28.43594 | -81.31638 | 102 ft | 3 kts | 49° |
| 2026-04-23 01:29 | 28.43600 | -81.31609 | 100 ft | 5 kts | 97° |
| 2026-04-23 01:29 | 28.43587 | -81.31569 | 100 ft | 6 kts | 113° |
| 2026-04-23 01:29 | 28.43586 | -81.31567 | 102 ft | 0 kts | 114° |